Sukran S — TCKB — position and weather

sailwx.info

Track history (hours):
 
Tides and Currents Weather Stations Pressure Air Temp Water Temp Dewpoint Dewpoint Depression Visibility Wind Speed Wind Dir Waves Ship Positions

Sukran S

Last reported at 2015-Apr-22 10:17 UTC. Time now 2015-Apr-28 14:29 UTC.
Position N 46°35' E 031°31'.

Length 108 m; draft 7.1 m.

Type: Ship. MMSI: 271000056.

Date/timePositionNaut miles runAvg speedWind from/ knotsBaromVisibWave heightAir tempDewpointWater temp
2015-Apr-22 10:17N 46°35' E 031°31'7 9.2
2015-Apr-22 09:33N 46°36' E 031°41'9 9.2
2015-Apr-22 08:34N 46°38' E 031°54'8 8.1
2015-Apr-22 07:33N 46°46' E 031°53'9 8.9
2015-Apr-22 06:33N 46°53' E 032°00'3 3.4
2015-Apr-22 05:33N 46°57' E 031°60'0 0.0
2015-Apr-22 04:32N 46°57' E 031°60'0 0.0
2015-Apr-22 03:32N 46°57' E 031°60'0 0.0
2015-Apr-22 02:28N 46°57' E 031°60'0 0.0
2015-Apr-22 01:32N 46°57' E 031°60'0 0.0
2015-Apr-22 00:31N 46°57' E 031°60'0 0.0
2015-Apr-21 23:31N 46°57' E 031°60'0 0.0
2015-Apr-21 20:12N 46°57' E 031°60'0 0.0
2015-Apr-21 19:33N 46°57' E 031°60'0 0.0
2015-Apr-21 18:33N 46°57' E 031°60'0 0.0
2015-Apr-21 17:33N 46°57' E 031°60'0 0.0
2015-Apr-21 16:32N 46°57' E 031°60'0 0.0
2015-Apr-21 15:27N 46°57' E 031°60'0 0.0
2015-Apr-21 14:33N 46°57' E 031°60'0 0.0
2015-Apr-21 13:33N 46°57' E 031°60'0 0.0
2015-Apr-21 12:32N 46°57' E 031°60'0 0.0
2015-Apr-21 11:31N 46°57' E 031°60'0 0.0
2015-Apr-21 10:31N 46°57' E 031°60'0 0.0
2015-Apr-21 09:31N 46°57' E 031°60'0 0.0
2015-Apr-21 08:31N 46°57' E 031°60'0 0.0
2015-Apr-21 07:31N 46°57' E 031°60'0 0.0
2015-Apr-21 06:31N 46°57' E 031°60'0 0.0
2015-Apr-21 05:32N 46°57' E 031°60'0 0.0
2015-Apr-21 04:32N 46°57' E 031°60'0 0.0
2015-Apr-21 03:26N 46°57' E 031°60'0 0.0
2015-Apr-21 02:28N 46°57' E 031°60'0 0.0
2015-Apr-21 01:30N 46°57' E 031°60'0 0.0
2015-Apr-21 00:28N 46°57' E 031°60'0 0.0
2015-Apr-20 23:31N 46°57' E 031°60'0 0.0
2015-Apr-20 22:31N 46°57' E 031°60'0 0.0
2015-Apr-20 21:31N 46°57' E 031°60'0 0.0
2015-Apr-20 20:33N 46°57' E 031°60'0 0.0
2015-Apr-20 19:30N 46°57' E 031°60'0 0.0
2015-Apr-20 18:32N 46°57' E 031°60'0 0.0
2015-Apr-20 17:31N 46°57' E 031°60'0 0.0
2015-Apr-20 16:31N 46°57' E 031°60'0 0.0
2015-Apr-20 15:33N 46°57' E 031°60'2 1.8
2015-Apr-20 14:34N 46°55' E 032°01'10 9.6
2015-Apr-20 13:33N 46°47' E 031°53'9 9.0
2015-Apr-20 12:33N 46°38' E 031°55'  
2015-Apr-15 19:21N 41°16' E 029°41'7 9.5
2015-Apr-15 18:33N 41°16' E 029°31'9 9.2
2015-Apr-15 17:34N 41°16' E 029°19'25 3.0
2015-Apr-15 09:10N 40°58' E 028°55'0 0.0
2015-Apr-15 08:17N 40°58' E 028°55'0 0.0
2015-Apr-15 07:17N 40°58' E 028°55'0 0.1
2015-Apr-15 06:25N 40°58' E 028°55'0 0.0
2015-Apr-15 04:24N 40°58' E 028°56'0 0.0
2015-Apr-15 03:27N 40°58' E 028°55'0 0.1
2015-Apr-15 00:20N 40°58' E 028°55'15 7.4
2015-Apr-14 22:15N 40°43' E 028°50'7 9.1
2015-Apr-14 21:26N 40°36' E 028°47'14 7.1
2015-Apr-14 19:27N 40°26' E 029°00'4 0.7
2015-Apr-14 14:15N 40°25' E 029°05'0 0.0
2015-Apr-14 04:17N 40°25' E 029°05'0 0.0
2015-Apr-14 03:33N 40°25' E 029°05'0 0.0
2015-Apr-14 01:27N 40°25' E 029°05'0 0.0
2015-Apr-14 00:15N 40°25' E 029°05'0 0.0
2015-Apr-13 23:09N 40°25' E 029°05'0 0.0
2015-Apr-13 21:08N 40°25' E 029°05'0 0.0
2015-Apr-13 20:32N 40°25' E 029°05'0 0.0
2015-Apr-13 19:13N 40°25' E 029°05'0 0.0
2015-Apr-13 18:09N 40°25' E 029°05'1 0.9
2015-Apr-13 17:33N 40°25' E 029°05'14 2.3
2015-Apr-13 11:33N 40°30' E 028°47'9 9.3
2015-Apr-13 10:34N 40°38' E 028°54'1111.0
2015-Apr-13 09:33N 40°42' E 029°07'1110.8
2015-Apr-13 08:32N 40°44' E 029°22'  
Track history (hours):
 
Tides and Currents Weather Stations Pressure Air Temp Water Temp Dewpoint Dewpoint Depression Visibility Wind Speed Wind Dir Waves Ship Positions

Sukran S

Last reported at 2015-Apr-22 10:17 UTC. Time now 2015-Apr-28 14:29 UTC.
Position N 46°35' E 031°31'.

Length 108 m; draft 7.1 m.

Type: Ship. MMSI: 271000056.

Date/timePositionNaut miles runAvg speedWind from/ knotsBaromVisibWave heightAir tempDewpointWater temp
2015-Apr-22 10:17N 46°35' E 031°31'7 9.2
2015-Apr-22 09:33N 46°36' E 031°41'9 9.2
2015-Apr-22 08:34N 46°38' E 031°54'8 8.1
2015-Apr-22 07:33N 46°46' E 031°53'9 8.9
2015-Apr-22 06:33N 46°53' E 032°00'3 3.4
2015-Apr-22 05:33N 46°57' E 031°60'0 0.0
2015-Apr-22 04:32N 46°57' E 031°60'0 0.0
2015-Apr-22 03:32N 46°57' E 031°60'0 0.0
2015-Apr-22 02:28N 46°57' E 031°60'0 0.0
2015-Apr-22 01:32N 46°57' E 031°60'0 0.0
2015-Apr-22 00:31N 46°57' E 031°60'0 0.0
2015-Apr-21 23:31N 46°57' E 031°60'0 0.0
2015-Apr-21 20:12N 46°57' E 031°60'0 0.0
2015-Apr-21 19:33N 46°57' E 031°60'0 0.0
2015-Apr-21 18:33N 46°57' E 031°60'0 0.0
2015-Apr-21 17:33N 46°57' E 031°60'0 0.0
2015-Apr-21 16:32N 46°57' E 031°60'0 0.0
2015-Apr-21 15:27N 46°57' E 031°60'0 0.0
2015-Apr-21 14:33N 46°57' E 031°60'0 0.0
2015-Apr-21 13:33N 46°57' E 031°60'0 0.0
2015-Apr-21 12:32N 46°57' E 031°60'0 0.0
2015-Apr-21 11:31N 46°57' E 031°60'0 0.0
2015-Apr-21 10:31N 46°57' E 031°60'0 0.0
2015-Apr-21 09:31N 46°57' E 031°60'0 0.0
2015-Apr-21 08:31N 46°57' E 031°60'0 0.0
2015-Apr-21 07:31N 46°57' E 031°60'0 0.0
2015-Apr-21 06:31N 46°57' E 031°60'0 0.0
2015-Apr-21 05:32N 46°57' E 031°60'0 0.0
2015-Apr-21 04:32N 46°57' E 031°60'0 0.0
2015-Apr-21 03:26N 46°57' E 031°60'0 0.0
2015-Apr-21 02:28N 46°57' E 031°60'0 0.0
2015-Apr-21 01:30N 46°57' E 031°60'0 0.0
2015-Apr-21 00:28N 46°57' E 031°60'0 0.0
2015-Apr-20 23:31N 46°57' E 031°60'0 0.0
2015-Apr-20 22:31N 46°57' E 031°60'0 0.0
2015-Apr-20 21:31N 46°57' E 031°60'0 0.0
2015-Apr-20 20:33N 46°57' E 031°60'0 0.0
2015-Apr-20 19:30N 46°57' E 031°60'0 0.0
2015-Apr-20 18:32N 46°57' E 031°60'0 0.0
2015-Apr-20 17:31N 46°57' E 031°60'0 0.0
2015-Apr-20 16:31N 46°57' E 031°60'0 0.0
2015-Apr-20 15:33N 46°57' E 031°60'2 1.8
2015-Apr-20 14:34N 46°55' E 032°01'10 9.6
2015-Apr-20 13:33N 46°47' E 031°53'9 9.0
2015-Apr-20 12:33N 46°38' E 031°55'  
2015-Apr-15 19:21N 41°16' E 029°41'7 9.5
2015-Apr-15 18:33N 41°16' E 029°31'9 9.2
2015-Apr-15 17:34N 41°16' E 029°19'25 3.0
2015-Apr-15 09:10N 40°58' E 028°55'0 0.0
2015-Apr-15 08:17N 40°58' E 028°55'0 0.0
2015-Apr-15 07:17N 40°58' E 028°55'0 0.1
2015-Apr-15 06:25N 40°58' E 028°55'0 0.0
2015-Apr-15 04:24N 40°58' E 028°56'0 0.0
2015-Apr-15 03:27N 40°58' E 028°55'0 0.1
2015-Apr-15 00:20N 40°58' E 028°55'15 7.4
2015-Apr-14 22:15N 40°43' E 028°50'7 9.1
2015-Apr-14 21:26N 40°36' E 028°47'14 7.1
2015-Apr-14 19:27N 40°26' E 029°00'4 0.7
2015-Apr-14 14:15N 40°25' E 029°05'0 0.0
2015-Apr-14 04:17N 40°25' E 029°05'0 0.0
2015-Apr-14 03:33N 40°25' E 029°05'0 0.0
2015-Apr-14 01:27N 40°25' E 029°05'0 0.0
2015-Apr-14 00:15N 40°25' E 029°05'0 0.0
2015-Apr-13 23:09N 40°25' E 029°05'0 0.0
2015-Apr-13 21:08N 40°25' E 029°05'0 0.0
2015-Apr-13 20:32N 40°25' E 029°05'0 0.0
2015-Apr-13 19:13N 40°25' E 029°05'0 0.0
2015-Apr-13 18:09N 40°25' E 029°05'1 0.9
2015-Apr-13 17:33N 40°25' E 029°05'14 2.3
2015-Apr-13 11:33N 40°30' E 028°47'9 9.3
2015-Apr-13 10:34N 40°38' E 028°54'1111.0
2015-Apr-13 09:33N 40°42' E 029°07'1110.8
2015-Apr-13 08:32N 40°44' E 029°22'  

Dump ship's entire track history